Ojmjakon, Russia
Current Conditions -  °F | °C
As of 5:30 PM on Saturday 25 Oct 2014 (Local Time) from UHMM Reporting Station
Scattered Clouds Scattered Clouds  
Wind Chill:   Ceiling: Unl
Heat Index:   Visibility: 6mi
Dew Point:   Wind: 2mph
Humidity: 85%   Direction: 100°E
Pressure: 29.68"   Gusts: NA
Location:  63.25°N, 143.15°E
Report Text: UHMM 250630Z 10001MPS 9999 SCT200 M14/M16 Q1005 NOSIG RMKQFE739 88850545
Loading
Personal Weather Stations






























Interactive Weather Map
Tropical Storm Tracking
New forecast layout! Learn more

10-Day Weather Forecast

Advertisements
Track Severe Weather on mobile